Time;durP1;ratioP1;P1;durP2;ratioP2;P2;SDS_P1;SDS_P2;PMS_P1;PMS_P2;Temp;Humidity;BMP_temperature;BMP_pressure;BME280_temperature;BME280_humidity;BME280_pressure;Samples;Min_cycle;Max_cycle;Signal;HPM_P1;HPM_P2
2022/12/30 00:01:13;;;;;;;3.90;0.52;;;20.60;46.50;;;;;;5076756;28;20039;-47
2022/12/30 00:03:40;;;;;;;1.67;0.30;;;20.60;46.50;;;;;;5083703;28;20141;-48
2022/12/30 00:06:14;;;;;;;1.40;0.50;;;20.60;46.70;;;;;;5092358;28;20127;-47
2022/12/30 00:08:47;;;;;;;2.28;0.45;;;20.50;46.70;;;;;;5085170;28;20121;-47
2022/12/30 00:11:16;;;;;;;3.20;0.70;;;20.50;46.70;;;;;;5087706;28;20462;-48
2022/12/30 00:33:21;;;;;;;3.22;0.30;;;20.30;47.40;;;;;;5026279;28;20499;-51
2022/12/30 00:35:48;;;;;;;2.53;0.30;;;20.30;47.40;;;;;;5023274;28;20045;-49
2022/12/30 00:38:15;;;;;;;2.67;0.40;;;20.30;47.40;;;;;;5021922;28;20143;-48
2022/12/30 00:43:07;;;;;;;1.45;0.30;;;20.30;47.60;;;;;;5022532;28;20604;-47
2022/12/30 00:43:29;;;;;;;2.90;0.20;;;20.30;47.60;;;;;;5005024;28;20193;-48
2022/12/30 00:45:56;;;;;;;1.52;0.20;;;20.20;47.50;;;;;;5022744;28;20418;-47
2022/12/30 00:56:39;;;;;;;3.28;0.77;;;20.20;47.80;;;;;;5023260;28;20161;-47
2022/12/30 00:59:06;;;;;;;2.90;0.20;;;20.20;47.80;;;;;;5022989;28;20045;-48
2022/12/30 01:01:33;;;;;;;1.60;0.43;;;20.20;47.80;;;;;;5020944;28;20056;-46
2022/12/30 01:04:02;;;;;;;2.35;0.10;;;20.10;47.90;;;;;;5077621;28;20507;-49
2022/12/30 01:06:29;;;;;;;2.00;0.20;;;20.10;47.70;;;;;;5086341;28;20097;-51
2022/12/30 01:08:57;;;;;;;1.75;0.20;;;20.10;47.60;;;;;;5095620;28;20040;-47
2022/12/30 01:11:24;;;;;;;0.50;0.40;;;20.10;47.70;;;;;;5092119;28;20102;-48
2022/12/30 01:13:51;;;;;;;2.85;0.30;;;20.10;47.80;;;;;;5086024;28;20055;-48
2022/12/30 01:16:18;;;;;;;2.88;0.30;;;20.10;47.80;;;;;;5086184;28;20040;-49
2022/12/30 01:18:45;;;;;;;2.42;0.10;;;20.10;47.90;;;;;;5086026;28;20124;-49
2022/12/30 01:21:14;;;;;;;1.20;0.20;;;20.10;47.90;;;;;;5089511;28;20068;-47
2022/12/30 01:23:41;;;;;;;1.35;0.65;;;20.10;47.90;;;;;;5089820;28;20464;-48
2022/12/30 01:26:08;;;;;;;1.95;0.20;;;20.00;47.90;;;;;;5089563;28;20126;-47
2022/12/30 01:28:37;;;;;;;4.95;0.20;;;20.00;47.80;;;;;;5089632;28;20036;-49
2022/12/30 01:31:07;;;;;;;1.55;0.57;;;20.00;48.00;;;;;;5087974;28;20459;-49
2022/12/30 01:33:34;;;;;;;2.10;0.90;;;20.00;48.00;;;;;;5088164;28;20036;-48
2022/12/30 01:36:01;;;;;;;2.67;0.17;;;20.00;48.00;;;;;;5089442;28;20152;-51
2022/12/30 01:38:31;;;;;;;2.95;0.17;;;20.00;47.90;;;;;;5099321;28;20174;-51
2022/12/30 01:40:58;;;;;;;2.60;1.20;;;20.00;47.90;;;;;;5099725;28;20074;-50
2022/12/30 01:43:42;;;;;;;0.82;0.28;;;20.00;48.00;;;;;;5089420;28;20139;-48
2022/12/30 01:46:11;;;;;;;1.05;0.32;;;20.00;48.00;;;;;;5089057;28;20048;-47
2022/12/30 01:48:39;;;;;;;1.73;0.55;;;19.90;48.20;;;;;;5089148;28;20066;-49
2022/12/30 01:51:09;;;;;;;2.03;0.10;;;19.90;48.30;;;;;;5089713;28;20123;-49
2022/12/30 01:53:41;;;;;;;2.00;0.25;;;19.90;48.40;;;;;;5089245;28;20779;-47
2022/12/30 01:56:13;;;;;;;2.15;0.30;;;19.90;48.40;;;;;;5089026;28;20469;-48
2022/12/30 01:58:43;;;;;;;1.60;0.40;;;19.90;48.30;;;;;;5089147;28;20071;-50
2022/12/30 02:01:10;;;;;;;3.75;0.30;;;19.90;48.20;;;;;;5089122;28;20040;-49
2022/12/30 02:03:40;;;;;;;2.40;1.13;;;19.90;48.20;;;;;;5089071;28;20132;-49
2022/12/30 02:06:09;;;;;;;0.70;0.22;;;19.80;48.20;;;;;;5089331;28;20878;-56
2022/12/30 02:08:36;;;;;;;2.08;0.28;;;19.80;48.20;;;;;;5088808;28;20058;-48
2022/12/30 02:11:06;;;;;;;3.60;0.20;;;19.90;48.30;;;;;;5089391;28;20052;-47
2022/12/30 02:13:35;;;;;;;3.00;0.68;;;19.80;48.20;;;;;;5089280;28;20079;-51
2022/12/30 02:16:30;;;;;;;6.35;0.45;;;19.80;48.20;;;;;;5088920;28;20076;-50
2022/12/30 02:19:10;;;;;;;1.23;0.38;;;19.80;48.10;;;;;;5086482;28;20814;-47
2022/12/30 02:22:04;;;;;;;1.35;0.20;;;19.80;48.20;;;;;;5088982;28;20417;-47
2022/12/30 02:25:10;;;;;;;1.75;0.85;;;19.80;48.00;;;;;;5088480;28;20566;-50
2022/12/30 02:28:13;;;;;;;3.15;0.95;;;19.80;48.40;;;;;;5074655;28;20048;-49
2022/12/30 02:31:10;;;;;;;3.28;1.00;;;19.70;48.30;;;;;;5068295;28;20828;-49
2022/12/30 02:33:45;;;;;;;1.00;0.13;;;19.70;48.40;;;;;;5106350;28;20122;-48
2022/12/30 02:36:19;;;;;;;2.25;0.45;;;19.70;48.60;;;;;;5108852;28;20075;-49
2022/12/30 02:38:53;;;;;;;0.40;0.10;;;19.70;48.60;;;;;;5108714;28;20179;-48
2022/12/30 02:47:07;;;;;;;2.17;0.75;;;19.70;48.80;;;;;;5090108;28;20090;-46
2022/12/30 02:49:37;;;;;;;3.28;0.50;;;19.70;48.80;;;;;;5108512;28;20055;-48
2022/12/30 02:52:17;;;;;;;1.35;0.90;;;19.70;49.00;;;;;;5108382;28;20081;-47
2022/12/30 02:54:48;;;;;;;0.77;0.22;;;19.70;49.00;;;;;;5108597;28;20035;-48
2022/12/30 02:57:24;;;;;;;1.10;0.57;;;19.60;49.00;;;;;;5104183;28;20147;-46
2022/12/30 03:05:51;;;;;;;0.85;0.10;;;19.70;49.00;;;;;;5088163;28;20040;-47
2022/12/30 03:08:27;;;;;;;1.70;0.30;;;19.60;48.80;;;;;;5087834;28;20579;-47
2022/12/30 03:11:12;;;;;;;1.08;0.20;;;19.60;48.80;;;;;;5088078;28;20123;-49
2022/12/30 03:13:44;;;;;;;1.02;0.30;;;19.60;48.90;;;;;;5088118;28;20044;-48
2022/12/30 03:16:17;;;;;;;0.60;0.22;;;19.60;49.00;;;;;;5087473;28;20093;-52
2022/12/30 03:18:48;;;;;;;3.38;0.60;;;19.60;49.00;;;;;;5070827;28;20123;-47
2022/12/30 03:21:16;;;;;;;4.80;0.85;;;19.60;49.10;;;;;;5086350;28;20044;-50
2022/12/30 03:29:23;;;;;;;1.95;0.40;;;19.60;49.10;;;;;;5087475;28;20126;-51
2022/12/30 03:31:51;;;;;;;0.95;0.20;;;19.60;49.10;;;;;;5087456;28;20036;-49
2022/12/30 03:34:19;;;;;;;1.80;0.20;;;19.60;49.00;;;;;;5087757;28;20063;-48
2022/12/30 03:36:49;;;;;;;1.58;0.20;;;19.50;48.90;;;;;;5087301;28;20123;-48
2022/12/30 03:39:21;;;;;;;2.35;0.10;;;19.60;49.00;;;;;;5087556;28;20448;-47
2022/12/30 03:41:51;;;;;;;2.67;0.20;;;19.60;48.90;;;;;;5087568;28;20139;-48
2022/12/30 03:44:19;;;;;;;0.98;0.20;;;19.50;49.30;;;;;;5087381;28;20123;-47
2022/12/30 03:46:48;;;;;;;1.80;0.30;;;19.60;49.10;;;;;;5087269;28;20040;-49
2022/12/30 03:49:15;;;;;;;1.67;0.38;;;19.60;49.10;;;;;;5106111;28;20418;-47
2022/12/30 03:51:44;;;;;;;3.92;0.30;;;19.60;49.20;;;;;;5107464;28;20047;-48
2022/12/30 03:54:11;;;;;;;0.60;0.20;;;19.50;49.00;;;;;;5107819;28;20028;-47
2022/12/30 03:56:38;;;;;;;3.53;0.25;;;19.60;49.20;;;;;;5107794;28;20069;-47
2022/12/30 03:59:05;;;;;;;1.55;0.10;;;19.50;49.20;;;;;;5106679;28;20038;-49
2022/12/30 04:01:32;;;;;;;2.67;0.40;;;19.60;49.30;;;;;;5086952;28;20040;-50
2022/12/30 04:03:59;;;;;;;3.58;0.30;;;19.50;49.40;;;;;;5087225;28;20115;-53
2022/12/30 04:06:26;;;;;;;3.45;0.85;;;19.60;49.50;;;;;;5072032;28;20041;-48
2022/12/30 04:08:55;;;;;;;1.75;0.30;;;19.60;49.70;;;;;;5067326;28;20052;-47
2022/12/30 04:11:22;;;;;;;2.80;0.30;;;19.50;49.70;;;;;;5080362;28;20096;-49
2022/12/30 04:13:51;;;;;;;3.25;0.75;;;19.60;49.80;;;;;;5087357;28;20036;-49
2022/12/30 04:16:18;;;;;;;0.82;0.32;;;19.60;49.80;;;;;;5087163;28;20095;-51
2022/12/30 04:18:45;;;;;;;1.65;0.65;;;19.50;49.70;;;;;;5087251;28;20040;-49
2022/12/30 04:21:12;;;;;;;1.92;0.40;;;19.60;49.70;;;;;;5086768;28;20135;-47
2022/12/30 04:23:39;;;;;;;4.03;0.25;;;19.60;49.80;;;;;;5086957;28;20036;-46
2022/12/30 04:26:08;;;;;;;1.55;0.30;;;19.60;49.80;;;;;;5087099;28;20508;-47
2022/12/30 04:28:35;;;;;;;5.00;0.20;;;19.50;49.70;;;;;;5086785;28;20505;-48
2022/12/30 04:31:02;;;;;;;1.73;0.85;;;19.50;49.60;;;;;;5086957;28;20068;-47
2022/12/30 04:33:29;;;;;;;2.92;0.30;;;19.60;49.60;;;;;;5086529;28;20056;-47
2022/12/30 04:35:56;;;;;;;0.73;0.20;;;19.60;49.50;;;;;;5098400;28;20039;-49
2022/12/30 04:38:23;;;;;;;0.50;0.20;;;19.50;49.50;;;;;;5086900;28;20055;-50
2022/12/30 04:40:50;;;;;;;1.92;0.75;;;19.50;49.40;;;;;;5086835;28;20101;-49
2022/12/30 04:43:19;;;;;;;2.60;0.68;;;19.60;49.50;;;;;;5086983;28;20115;-48
2022/12/30 04:45:46;;;;;;;2.05;0.82;;;19.50;49.40;;;;;;5087055;28;20574;-47
2022/12/30 04:48:13;;;;;;;1.45;0.10;;;19.60;50.10;;;;;;5086002;28;20043;-48
2022/12/30 04:50:42;;;;;;;7.03;0.30;;;19.50;49.40;;;;;;5086969;28;20126;-49
2022/12/30 04:53:09;;;;;;;2.25;0.17;;;19.50;49.30;;;;;;5086502;28;20891;-50
2022/12/30 04:55:36;;;;;;;1.48;0.20;;;19.60;49.50;;;;;;5089239;28;20559;-49
2022/12/30 04:58:03;;;;;;;2.38;0.15;;;19.60;49.60;;;;;;5090390;28;20059;-50
2022/12/30 05:00:32;;;;;;;1.02;0.10;;;19.60;49.60;;;;;;5090607;28;20055;-50
2022/12/30 05:02:59;;;;;;;0.57;0.57;;;19.60;49.60;;;;;;5089959;28;20040;-49
2022/12/30 05:05:27;;;;;;;2.72;0.40;;;19.60;49.50;;;;;;5090636;28;20044;-49
2022/12/30 05:07:54;;;;;;;1.88;0.20;;;19.50;49.60;;;;;;5103552;28;20131;-48
2022/12/30 05:10:21;;;;;;;0.95;0.40;;;19.60;49.50;;;;;;5106074;28;20052;-51
2022/12/30 05:12:48;;;;;;;2.08;0.25;;;19.50;49.60;;;;;;5101638;28;20126;-50
2022/12/30 05:15:15;;;;;;;1.58;0.10;;;19.50;49.60;;;;;;5111349;27;20127;-50
2022/12/30 05:17:44;;;;;;;0.95;0.30;;;19.60;49.60;;;;;;5110834;28;20050;-52
2022/12/30 05:20:11;;;;;;;1.40;0.25;;;19.60;49.50;;;;;;5095352;28;20051;-50
2022/12/30 05:22:38;;;;;;;0.68;0.20;;;19.60;49.50;;;;;;5090459;28;20071;-49
2022/12/30 05:27:51;;;;;;;1.17;0.20;;;19.60;49.40;;;;;;5089739;28;20630;-51
2022/12/30 05:30:18;;;;;;;2.60;0.95;;;19.60;49.40;;;;;;5089730;28;20044;-49
2022/12/30 05:32:46;;;;;;;1.15;0.20;;;19.60;49.40;;;;;;5091802;28;20062;-50
2022/12/30 05:35:13;;;;;;;1.95;0.10;;;19.60;49.30;;;;;;5089701;28;20075;-51
2022/12/30 05:37:40;;;;;;;1.42;0.10;;;19.50;49.40;;;;;;5090017;28;20128;-48
2022/12/30 05:40:09;;;;;;;0.80;0.20;;;19.60;49.40;;;;;;5089286;28;20106;-47
2022/12/30 05:42:36;;;;;;;2.42;0.17;;;19.50;49.30;;;;;;5088166;28;20047;-53
2022/12/30 05:45:04;;;;;;;1.98;0.10;;;19.50;49.30;;;;;;5089922;28;20130;-52
2022/12/30 05:47:31;;;;;;;0.80;0.22;;;19.50;49.30;;;;;;5071118;28;20052;-51
2022/12/30 05:49:59;;;;;;;4.50;0.63;;;19.50;49.40;;;;;;5089578;28;20512;-46
2022/12/30 05:52:27;;;;;;;1.85;0.43;;;19.60;49.40;;;;;;5090036;28;20087;-47
2022/12/30 05:54:54;;;;;;;3.50;0.50;;;19.60;49.40;;;;;;5089824;28;20044;-48
2022/12/30 05:57:21;;;;;;;2.42;0.10;;;19.60;49.30;;;;;;5087582;28;20076;-48
2022/12/30 05:59:49;;;;;;;0.98;0.35;;;19.60;49.50;;;;;;5089562;28;20123;-51
2022/12/30 06:02:16;;;;;;;1.58;0.68;;;19.60;49.50;;;;;;5088778;28;20047;-47
2022/12/30 06:04:43;;;;;;;1.38;0.10;;;19.60;49.50;;;;;;5089295;28;20050;-48
2022/12/30 06:07:11;;;;;;;1.10;0.17;;;19.60;49.50;;;;;;5088435;28;20177;-47
2022/12/30 06:09:38;;;;;;;2.30;0.20;;;19.60;49.50;;;;;;5088850;28;20044;-51
2022/12/30 06:12:05;;;;;;;0.85;0.20;;;19.60;49.40;;;;;;5087536;28;20512;-50
2022/12/30 06:14:32;;;;;;;1.08;0.10;;;19.60;49.50;;;;;;5089136;28;20044;-47
2022/12/30 06:16:59;;;;;;;1.58;0.57;;;19.60;49.50;;;;;;5088366;28;20044;-47
2022/12/30 06:19:27;;;;;;;1.67;0.20;;;19.60;49.60;;;;;;5089189;28;20044;-51
2022/12/30 06:21:54;;;;;;;1.50;0.10;;;19.60;49.60;;;;;;5087997;28;20093;-50
2022/12/30 06:24:23;;;;;;;2.92;1.17;;;19.60;49.60;;;;;;5088910;28;20051;-52
2022/12/30 06:26:50;;;;;;;1.80;0.10;;;19.60;49.60;;;;;;5089489;28;20067;-48
2022/12/30 06:29:17;;;;;;;1.88;0.15;;;19.60;49.70;;;;;;5088567;28;20040;-46
2022/12/30 06:31:44;;;;;;;2.78;1.20;;;19.60;49.70;;;;;;5089913;28;20044;-48
2022/12/30 06:34:11;;;;;;;2.70;0.30;;;19.60;49.80;;;;;;5089614;28;20165;-47
2022/12/30 06:36:38;;;;;;;1.95;0.40;;;19.60;49.80;;;;;;5068381;28;20106;-48
2022/12/30 06:39:05;;;;;;;2.85;0.35;;;19.60;49.90;;;;;;5082274;28;20173;-51
2022/12/30 06:41:33;;;;;;;2.78;0.60;;;19.60;49.90;;;;;;5088634;28;20398;-47
2022/12/30 06:44:00;;;;;;;2.25;0.20;;;19.60;49.80;;;;;;5088364;28;20567;-48
2022/12/30 06:46:27;;;;;;;3.17;0.65;;;19.60;49.80;;;;;;5089246;28;20050;-50
2022/12/30 06:48:54;;;;;;;2.53;0.13;;;19.60;49.80;;;;;;5093497;28;20044;-47
2022/12/30 06:51:21;;;;;;;5.05;0.20;;;19.60;49.90;;;;;;5088517;28;20036;-49
2022/12/30 06:53:48;;;;;;;1.95;0.52;;;19.60;50.40;;;;;;5088311;28;20040;-47
2022/12/30 06:56:15;;;;;;;3.88;0.40;;;19.60;49.70;;;;;;5088258;28;20467;-47
2022/12/30 06:58:44;;;;;;;3.08;0.50;;;19.60;49.70;;;;;;5098179;28;20564;-47
2022/12/30 07:01:11;;;;;;;1.10;0.15;;;19.60;49.70;;;;;;5090083;28;20044;-49
2022/12/30 07:03:38;;;;;;;2.33;0.30;;;19.60;49.70;;;;;;5087753;28;20096;-50
2022/12/30 07:06:06;;;;;;;2.28;0.22;;;19.60;49.60;;;;;;5088264;28;20530;-51
2022/12/30 07:08:33;;;;;;;1.75;0.10;;;19.60;49.60;;;;;;5096305;28;20046;-53
2022/12/30 07:11:00;;;;;;;2.92;0.20;;;19.60;49.50;;;;;;5087322;28;20040;-48
2022/12/30 07:13:28;;;;;;;3.67;0.55;;;19.60;49.70;;;;;;5084184;28;20500;-51
2022/12/30 07:15:56;;;;;;;1.75;0.10;;;19.60;49.60;;;;;;5087869;28;20042;-50
2022/12/30 07:18:23;;;;;;;2.55;1.85;;;19.60;49.70;;;;;;5086822;28;20072;-50
2022/12/30 07:20:50;;;;;;;1.27;0.47;;;19.60;49.80;;;;;;5088181;28;20044;-50
2022/12/30 07:23:17;;;;;;;3.20;0.20;;;19.60;49.80;;;;;;5087774;28;20047;-49
2022/12/30 07:25:46;;;;;;;1.95;0.20;;;19.60;49.70;;;;;;5083245;28;20044;-48
2022/12/30 07:28:14;;;;;;;5.13;0.90;;;19.60;49.70;;;;;;5087339;28;20048;-50
2022/12/30 07:30:41;;;;;;;3.70;0.30;;;19.60;49.70;;;;;;5087716;28;20058;-49
2022/12/30 07:33:10;;;;;;;3.92;0.30;;;19.60;49.60;;;;;;5087233;28;20044;-47
2022/12/30 07:35:38;;;;;;;2.83;0.20;;;19.60;49.70;;;;;;5087421;28;20044;-49
2022/12/30 07:38:05;;;;;;;2.10;0.10;;;19.60;49.70;;;;;;5087614;28;20450;-49
2022/12/30 07:40:32;;;;;;;3.42;0.20;;;19.60;49.70;;;;;;5087238;28;20044;-48
2022/12/30 07:42:59;;;;;;;6.25;0.22;;;19.60;49.70;;;;;;5085773;28;20105;-47
2022/12/30 07:45:26;;;;;;;3.08;0.30;;;19.70;49.90;;;;;;5086780;28;20040;-47
2022/12/30 07:47:53;;;;;;;2.58;0.28;;;19.60;49.80;;;;;;5086786;28;20147;-47
2022/12/30 07:50:21;;;;;;;2.47;0.22;;;19.70;49.80;;;;;;5085786;28;20127;-48
2022/12/30 07:52:48;;;;;;;3.10;0.17;;;19.60;49.70;;;;;;5086917;28;20040;-50
2022/12/30 07:55:15;;;;;;;3.25;0.30;;;19.70;49.80;;;;;;5087694;28;20143;-47
2022/12/30 07:57:42;;;;;;;1.33;0.10;;;19.70;49.80;;;;;;5086517;28;20044;-48
2022/12/30 08:00:10;;;;;;;4.53;0.10;;;19.60;49.80;;;;;;5086686;28;20036;-49
2022/12/30 08:02:40;;;;;;;6.57;0.20;;;19.60;49.80;;;;;;5086381;28;20048;-47
2022/12/30 08:05:08;;;;;;;1.17;0.10;;;19.70;49.90;;;;;;5087004;28;20072;-49
2022/12/30 08:07:37;;;;;;;1.05;0.17;;;19.70;49.90;;;;;;5086663;28;20043;-47
2022/12/30 08:10:05;;;;;;;1.70;0.43;;;19.70;49.90;;;;;;5087078;28;20048;-48
2022/12/30 08:12:34;;;;;;;2.72;0.30;;;19.70;50.00;;;;;;5086428;28;20567;-50
2022/12/30 08:15:01;;;;;;;1.98;0.22;;;19.70;50.00;;;;;;5085421;28;20109;-49
2022/12/30 08:17:29;;;;;;;2.53;0.35;;;19.70;50.00;;;;;;5086825;28;20400;-49
2022/12/30 08:19:56;;;;;;;1.80;0.17;;;19.70;50.00;;;;;;5087043;28;20055;-48
2022/12/30 08:22:23;;;;;;;0.50;0.10;;;19.70;49.90;;;;;;5086983;28;20047;-49
2022/12/30 08:24:51;;;;;;;2.58;0.10;;;19.70;50.00;;;;;;5085237;28;20591;-51
2022/12/30 08:27:19;;;;;;;0.73;0.20;;;19.70;49.90;;;;;;5086758;28;20050;-52
2022/12/30 08:29:46;;;;;;;8.57;0.10;;;19.70;50.00;;;;;;5088207;28;20047;-48
2022/12/30 08:32:13;;;;;;;1.95;0.10;;;19.70;50.10;;;;;;5092614;28;20049;-49
2022/12/30 08:34:40;;;;;;;2.83;0.10;;;19.70;50.10;;;;;;5095303;28;20040;-52
2022/12/30 08:37:07;;;;;;;0.98;0.10;;;19.70;50.00;;;;;;5091077;28;20515;-47
2022/12/30 08:39:34;;;;;;;4.95;1.10;;;19.70;50.10;;;;;;5090956;28;20516;-50
2022/12/30 08:42:03;;;;;;;1.70;0.20;;;19.70;50.00;;;;;;5090557;28;20551;-52
2022/12/30 08:44:30;;;;;;;1.05;0.10;;;19.70;50.60;;;;;;5090541;28;20044;-48
2022/12/30 08:46:57;;;;;;;3.97;0.10;;;19.70;50.10;;;;;;5090683;28;20047;-50
2022/12/30 08:49:24;;;;;;;1.88;0.20;;;19.70;50.10;;;;;;5090378;28;20071;-49
2022/12/30 08:51:51;;;;;;;1.85;0.40;;;19.70;50.10;;;;;;5090800;28;20077;-47
2022/12/30 08:54:18;;;;;;;2.67;0.22;;;19.70;50.20;;;;;;5090501;28;20045;-51
2022/12/30 08:56:48;;;;;;;0.65;0.10;;;19.80;50.20;;;;;;5090576;28;20047;-48
2022/12/30 08:59:16;;;;;;;4.38;0.60;;;19.70;50.10;;;;;;5090515;28;20409;-47
2022/12/30 09:01:44;;;;;;;0.68;0.38;;;19.70;50.10;;;;;;5092824;28;20066;-47
2022/12/30 09:04:12;;;;;;;1.08;0.20;;;19.70;50.10;;;;;;5081730;28;20079;-49
2022/12/30 09:06:41;;;;;;;1.10;0.10;;;19.70;50.20;;;;;;5076168;28;20131;-48
2022/12/30 09:09:10;;;;;;;0.43;0.20;;;19.70;50.20;;;;;;5090101;28;20133;-48
2022/12/30 09:11:39;;;;;;;1.35;0.20;;;19.70;50.20;;;;;;5090152;28;20044;-47
2022/12/30 09:14:08;;;;;;;2.15;0.20;;;19.70;50.40;;;;;;5090008;28;20511;-48
2022/12/30 09:16:36;;;;;;;1.25;0.10;;;19.70;50.40;;;;;;5090264;28;20043;-49
2022/12/30 09:19:03;;;;;;;1.58;0.10;;;19.70;50.50;;;;;;5089377;28;20390;-49
2022/12/30 09:21:30;;;;;;;1.67;0.30;;;19.70;50.50;;;;;;5085370;28;20407;-48
2022/12/30 09:27:08;;;;;;;2.90;0.10;;;19.70;50.60;;;;;;5007093;28;20620;-46
2022/12/30 09:29:35;;;;;;;2.58;0.20;;;19.70;50.70;;;;;;5040620;28;20227;-44
2022/12/30 09:32:04;;;;;;;0.35;0.10;;;19.70;50.90;;;;;;5034792;28;21509;-45
2022/12/30 09:34:31;;;;;;;0.15;0.10;;;19.70;50.90;;;;;;5043456;28;20182;-43
2022/12/30 09:36:58;;;;;;;0.20;0.10;;;19.70;51.00;;;;;;5047191;28;20570;-42
2022/12/30 09:39:30;;;;;;;10.10;0.20;;;19.70;51.00;;;;;;5041256;28;20134;-44
2022/12/30 09:45:00;;;;;;;2.45;0.10;;;19.70;51.10;;;;;;5040689;28;20041;-44
2022/12/30 09:47:30;;;;;;;2.38;0.10;;;19.70;51.10;;;;;;5045241;28;20135;-48
2022/12/30 09:50:02;;;;;;;3.30;0.10;;;19.70;51.20;;;;;;5044666;28;20543;-45
2022/12/30 09:52:33;;;;;;;3.03;0.25;;;19.70;51.20;;;;;;5039841;28;20039;-45
2022/12/30 09:55:06;;;;;;;1.80;0.25;;;19.80;51.30;;;;;;5041224;28;20041;-44
2022/12/30 09:57:36;;;;;;;0.50;0.10;;;19.70;51.20;;;;;;5045089;28;20041;-43
2022/12/30 10:00:13;;;;;;;0.65;0.10;;;19.70;51.40;;;;;;5038747;28;20202;-44
2022/12/30 10:02:54;;;;;;;0.10;0.10;;;19.80;51.30;;;;;;5041230;28;20050;-43
2022/12/30 10:05:34;;;;;;;0.65;0.10;;;19.80;51.20;;;;;;5042550;28;20045;-43
2022/12/30 10:08:19;;;;;;;1.10;0.20;;;19.80;51.20;;;;;;5039434;28;20107;-48
2022/12/30 10:10:51;;;;;;;2.22;0.10;;;19.70;51.20;;;;;;5041803;28;20626;-60
2022/12/30 10:13:24;;;;;;;4.20;0.10;;;19.80;51.60;;;;;;5048281;28;20044;-61
2022/12/30 10:15:56;;;;;;;0.60;0.10;;;19.80;51.70;;;;;;5048489;28;20037;-62
2022/12/30 10:18:48;;;;;;;5.28;0.10;;;19.90;51.70;;;;;;5044195;28;20102;-51
2022/12/30 10:21:27;;;;;;;1.33;0.43;;;20.00;51.70;;;;;;5048007;28;20122;-50
2022/12/30 10:24:19;;;;;;;2.17;0.00;;;20.10;51.70;;;;;;5047890;28;20045;-51
2022/12/30 10:26:48;;;;;;;1.05;0.38;;;20.10;51.60;;;;;;5045585;28;20160;-49
2022/12/30 10:29:18;;;;;;;1.40;0.10;;;20.10;51.50;;;;;;5045419;28;20039;-51
2022/12/30 10:31:47;;;;;;;2.47;0.63;;;20.20;51.50;;;;;;5045553;28;20857;-52
2022/12/30 10:34:17;;;;;;;1.20;0.10;;;20.20;51.40;;;;;;5044407;28;20103;-54
2022/12/30 10:36:50;;;;;;;0.45;0.00;;;20.30;51.30;;;;;;5046048;28;20075;-56
2022/12/30 10:39:19;;;;;;;0.22;0.10;;;20.30;51.20;;;;;;5046061;28;20037;-51
2022/12/30 10:42:12;;;;;;;0.45;0.03;;;20.30;51.20;;;;;;5046005;28;20794;-52
2022/12/30 10:44:51;;;;;;;0.10;0.00;;;20.40;51.00;;;;;;5045064;28;20144;-54
2022/12/30 10:47:34;;;;;;;1.38;0.10;;;20.40;51.00;;;;;;5041943;28;20041;-56
2022/12/30 10:50:30;;;;;;;0.20;0.00;;;20.50;51.00;;;;;;5031587;28;20043;-56
2022/12/30 10:52:58;;;;;;;0.65;0.40;;;20.50;51.00;;;;;;5044740;28;20495;-51
2022/12/30 10:55:27;;;;;;;0.57;0.10;;;20.50;51.00;;;;;;5045046;28;20037;-60
2022/12/30 10:57:59;;;;;;;0.75;0.10;;;20.50;51.00;;;;;;5045993;28;20086;-60
2022/12/30 11:00:27;;;;;;;1.65;0.10;;;20.60;51.10;;;;;;5045975;28;20036;-56
2022/12/30 11:02:57;;;;;;;0.05;0.00;;;20.60;51.10;;;;;;5045863;28;20574;-57
2022/12/30 11:05:33;;;;;;;1.65;0.10;;;20.70;51.10;;;;;;5042858;28;20041;-62
2022/12/30 11:08:02;;;;;;;1.23;0.00;;;20.70;51.10;;;;;;5045245;28;20867;-58
2022/12/30 11:10:29;;;;;;;0.20;0.10;;;20.70;51.10;;;;;;5045264;28;20073;-58
2022/12/30 11:15:59;;;;;;;0.82;0.10;;;20.80;51.00;;;;;;5030699;28;20040;-57
2022/12/30 11:18:29;;;;;;;1.20;0.00;;;20.80;51.00;;;;;;5048191;28;20040;-54
2022/12/30 11:20:59;;;;;;;0.45;0.00;;;20.90;50.90;;;;;;5052695;28;20226;-57
2022/12/30 11:23:33;;;;;;;0.03;0.00;;;20.90;50.90;;;;;;5045132;28;20103;-52
2022/12/30 11:26:02;;;;;;;0.00;0.00;;;21.00;50.90;;;;;;5044284;28;20047;-54
2022/12/30 11:28:34;;;;;;;0.00;0.00;;;21.00;50.90;;;;;;5045314;28;20029;-49
2022/12/30 11:31:04;;;;;;;0.75;0.75;;;21.00;50.80;;;;;;5047750;28;20067;-55
2022/12/30 11:33:34;;;;;;;0.30;0.00;;;21.00;50.80;;;;;;5045166;28;20115;-53
2022/12/30 11:36:18;;;;;;;1.60;0.15;;;21.10;51.30;;;;;;5044410;28;20495;-50
2022/12/30 11:38:47;;;;;;;0.00;0.00;;;21.10;50.70;;;;;;5043555;28;20523;-53
2022/12/30 11:41:29;;;;;;;0.17;0.00;;;21.10;50.60;;;;;;5044809;28;20032;-51
2022/12/30 11:44:14;;;;;;;0.17;0.10;;;21.20;50.60;;;;;;5055354;28;20449;-55
2022/12/30 11:46:44;;;;;;;0.63;0.00;;;21.20;50.60;;;;;;5045070;28;20140;-50
2022/12/30 11:49:37;;;;;;;0.30;0.00;;;21.20;50.70;;;;;;5045004;28;20041;-50
2022/12/30 11:52:21;;;;;;;0.00;0.00;;;21.20;50.60;;;;;;5044308;28;20045;-49
2022/12/30 11:54:52;;;;;;;0.00;0.00;;;21.20;50.50;;;;;;5045001;28;20045;-48
2022/12/30 11:57:26;;;;;;;0.10;0.00;;;21.20;50.50;;;;;;5043439;28;20055;-53
2022/12/30 11:59:56;;;;;;;0.70;0.00;;;21.20;50.50;;;;;;5045083;28;20037;-49
2022/12/30 12:02:27;;;;;;;0.03;0.00;;;21.30;50.50;;;;;;5044796;28;20067;-54
2022/12/30 12:04:54;;;;;;;0.00;0.00;;;21.30;50.50;;;;;;5044199;28;20066;-53
2022/12/30 12:07:26;;;;;;;0.32;0.00;;;21.30;50.40;;;;;;5044985;28;20501;-51
2022/12/30 12:10:06;;;;;;;0.20;0.00;;;21.30;50.40;;;;;;5053003;28;20037;-57
2022/12/30 12:12:39;;;;;;;0.15;0.00;;;21.30;50.90;;;;;;5044344;28;20129;-54
2022/12/30 12:15:22;;;;;;;0.32;0.00;;;21.40;50.40;;;;;;5059951;28;20044;-53
2022/12/30 12:17:54;;;;;;;0.00;0.00;;;21.40;50.40;;;;;;5033937;28;20186;-50
2022/12/30 12:20:29;;;;;;;0.32;0.00;;;21.40;50.40;;;;;;5038105;28;20048;-49
2022/12/30 12:23:10;;;;;;;0.00;0.00;;;21.40;51.00;;;;;;5045065;28;20564;-51
2022/12/30 12:25:42;;;;;;;0.00;0.00;;;21.50;50.40;;;;;;5044226;28;20520;-52
2022/12/30 12:28:11;;;;;;;0.90;0.00;;;21.50;50.40;;;;;;5044730;28;20475;-51
2022/12/30 12:31:02;;;;;;;0.47;0.00;;;21.50;50.40;;;;;;5045834;28;20052;-50
2022/12/30 12:33:40;;;;;;;0.00;0.00;;;21.50;50.30;;;;;;5044541;28;20041;-53
2022/12/30 12:36:16;;;;;;;0.00;0.00;;;21.50;50.40;;;;;;5044619;28;20500;-51
2022/12/30 12:38:54;;;;;;;2.58;0.00;;;21.50;50.40;;;;;;5044509;28;20169;-56
2022/12/30 12:41:39;;;;;;;0.00;0.00;;;21.50;50.40;;;;;;5044388;28;20052;-54
2022/12/30 12:44:26;;;;;;;0.00;0.00;;;21.50;50.30;;;;;;5044881;28;20505;-50
2022/12/30 12:47:11;;;;;;;1.67;0.00;;;21.60;50.30;;;;;;5044733;28;20139;-48
2022/12/30 12:50:01;;;;;;;0.17;0.00;;;21.60;50.40;;;;;;5050992;28;20068;-50
2022/12/30 12:52:40;;;;;;;0.00;0.00;;;21.60;50.30;;;;;;5052434;28;20132;-53
2022/12/30 12:55:24;;;;;;;0.00;0.00;;;21.60;50.40;;;;;;5044397;28;20583;-51
2022/12/30 12:57:58;;;;;;;0.10;0.00;;;21.60;50.40;;;;;;5045343;28;20072;-53
2022/12/30 13:00:35;;;;;;;0.00;0.00;;;21.60;50.40;;;;;;5060198;28;20053;-55
2022/12/30 13:03:24;;;;;;;2.10;0.00;;;21.60;50.40;;;;;;5044064;28;20087;-55
2022/12/30 13:05:57;;;;;;;0.35;0.00;;;21.60;50.30;;;;;;5044537;28;20036;-56
2022/12/30 13:08:47;;;;;;;0.00;0.00;;;21.60;50.40;;;;;;5044394;28;20558;-53
2022/12/30 13:11:19;;;;;;;0.15;0.15;;;21.60;50.40;;;;;;5001531;28;20127;-59
2022/12/30 13:13:55;;;;;;;0.00;0.00;;;21.60;50.40;;;;;;5001575;28;20726;-56
2022/12/30 13:16:27;;;;;;;5.07;0.00;;;21.70;50.50;;;;;;5003560;28;20046;-55
2022/12/30 13:18:56;;;;;;;0.00;0.00;;;21.70;50.70;;;;;;5004853;28;20056;-50
2022/12/30 13:21:26;;;;;;;0.00;0.00;;;21.70;51.00;;;;;;5005626;28;20045;-56
2022/12/30 13:23:57;;;;;;;0.90;0.05;;;21.80;51.40;;;;;;5005431;28;20049;-53
2022/12/30 13:26:28;;;;;;;2.00;1.90;;;21.90;51.60;;;;;;5004804;28;20068;-55
2022/12/30 13:28:57;;;;;;;9.23;8.45;;;22.00;51.70;;;;;;5005443;28;20421;-56
2022/12/30 13:31:38;;;;;;;8.73;7.88;;;22.10;51.80;;;;;;5004814;28;21046;-57
2022/12/30 13:34:20;;;;;;;8.07;6.80;;;22.30;51.80;;;;;;5005129;28;20054;-56
2022/12/30 13:36:55;;;;;;;6.82;6.43;;;22.50;51.60;;;;;;5005734;28;20077;-53
2022/12/30 13:39:30;;;;;;;6.13;5.63;;;22.70;51.50;;;;;;5005160;28;20046;-55
2022/12/30 13:42:39;;;;;;;5.95;5.50;;;22.80;51.40;;;;;;5005141;28;20140;-50
2022/12/30 13:45:22;;;;;;;7.18;6.68;;;23.00;51.70;;;;;;4989565;28;20143;-55
2022/12/30 13:47:50;;;;;;;7.25;6.78;;;23.20;50.80;;;;;;4998261;28;20543;-52
2022/12/30 13:50:25;;;;;;;6.45;5.95;;;23.30;50.80;;;;;;5047891;28;20389;-54
2022/12/30 13:52:54;;;;;;;5.18;4.97;;;23.40;50.70;;;;;;5047611;28;20041;-56
2022/12/30 13:55:23;;;;;;;4.50;4.20;;;23.60;50.70;;;;;;5047684;28;20378;-56
2022/12/30 13:57:58;;;;;;;7.55;3.55;;;23.70;50.60;;;;;;5047686;28;20037;-50
2022/12/30 14:00:30;;;;;;;3.20;3.10;;;23.80;50.10;;;;;;5047568;28;20075;-52
2022/12/30 14:03:12;;;;;;;2.92;2.83;;;23.90;50.00;;;;;;5047480;28;20118;-55
2022/12/30 14:06:01;;;;;;;1.67;1.63;;;24.00;50.00;;;;;;5046962;28;20064;-56